This is the latest recevied weather packets stored in our database for station/object DL7KST-13. If no packets are shown the sender has not sent any weather packets the latest 1 day(s).
| Time | Temp. | Humidity | Pressure | Rain* | Wind** | Luminosity | Snow |
|---|---|---|---|---|---|---|---|
| 1777966933 | 13.33° C | 84% | 1000.5 hPa | 0 mm | 0.45 m/s, 17° | - | - |
| 1777965728 | 12.78° C | 86% | 1000.2 hPa | 0 mm | 1.79 m/s, 42° | - | - |
| 1777964524 | 12.78° C | 86% | 1000.4 hPa | 0 mm | 1.34 m/s, 47° | - | - |
| 1777963319 | 12.22° C | 90% | 1000.3 hPa | 0 mm | 0.45 m/s, 42° | - | - |
| 1777962114 | 11.67° C | 91% | 1000.6 hPa | 0.51 mm | 0 m/s | - | - |
| 1777960909 | 11.67° C | 91% | 1000.8 hPa | 1.27 mm | 0.89 m/s, 63° | - | - |
| 1777959703 | 11.11° C | 90% | 1000.8 hPa | 1.52 mm | 0.45 m/s, 29° | - | - |
| 1777958499 | 11.67° C | 88% | 1000.8 hPa | 1.27 mm | 0 m/s | - | - |
| 1777957294 | 11.67° C | 88% | 1001.2 hPa | 0.51 mm | 0.45 m/s, 310° | - | - |
| 1777956089 | 11.67° C | 86% | 1000.7 hPa | 0.25 mm | 0.45 m/s, 86° | - | - |
| 1777954884 | 11.67° C | 85% | 1000.7 hPa | 0 mm | 0.45 m/s, 79° | - | - |
| 1777953679 | 11.67° C | 84% | 1001 hPa | 0 mm | 0.45 m/s, 97° | - | - |
| 1777952474 | 11.67° C | 83% | 1000.8 hPa | 0 mm | 0 m/s | - | - |
| 1777951268 | 12.22° C | 81% | 1000.8 hPa | 0 mm | 0.45 m/s, 44° | - | - |
| 1777950064 | 12.78° C | 79% | 1000.9 hPa | 0 mm | 0.45 m/s, 60° | - | - |
| 1777948858 | 12.78° C | 77% | 1000.8 hPa | 0 mm | 0.45 m/s, 1° | - | - |
| 1777947654 | 12.22° C | 78% | 1000.9 hPa | 0 mm | 0.45 m/s, 150° | - | - |
| 1777946449 | 12.22° C | 80% | 1001.3 hPa | 0 mm | 0 m/s | - | - |
| 1777945245 | 11.67° C | 84% | 1001.3 hPa | 0 mm | 0.45 m/s, 360° | - | - |
| 1777944039 | 11.11° C | 87% | 1001.2 hPa | 0 mm | 0.45 m/s, 97° | - | - |
| 1777942867 | 10.56° C | 90% | 1001.3 hPa | 0 mm | 0.45 m/s, 70° | - | - |
| 1777942833 | 10.56° C | 90% | 1001.3 hPa | 0 mm | 0.45 m/s, 70° | - | - |
| 1777941628 | 10° C | 91% | 1001.7 hPa | 0 mm | 0.45 m/s, 68° | - | - |
| 1777940424 | 10° C | 91% | 1001.9 hPa | 0 mm | 0.45 m/s, 46° | - | - |
| 1777939219 | 10.56° C | 89% | 1001.9 hPa | 0 mm | 0 m/s | - | - |
* Rain latest hour (hover to see other rain measurements)
** Current wind speed in m/s (hover to see current wind gust speed)